Time;durP1;ratioP1;P1;durP2;ratioP2;P2;SDS_P1;SDS_P2;PMS_P1;PMS_P2;Temp;Humidity;BMP_temperature;BMP_pressure;BME280_temperature;BME280_humidity;BME280_pressure;Samples;Min_cycle;Max_cycle;Signal;HPM_P1;HPM_P2
2022/07/05 00:01:06;;;;;;;7.20;4.00;;;19.30;90.10;;;15.95;89.19;101033.38;5033140;28;20057;-79
2022/07/05 00:03:34;;;;;;;6.13;3.33;;;19.30;90.10;;;15.94;88.55;101031.69;5049595;28;20040;-79
2022/07/05 00:06:01;;;;;;;5.90;2.92;;;19.30;89.90;;;15.96;88.83;101035.06;5052850;28;20052;-79
2022/07/05 00:08:28;;;;;;;5.30;2.53;;;19.30;90.00;;;15.88;89.44;101032.53;5051890;28;20123;-79
2022/07/05 00:10:55;;;;;;;5.97;3.10;;;19.20;90.10;;;15.83;90.41;101035.88;5049761;28;20507;-79
2022/07/05 00:13:23;;;;;;;5.20;2.50;;;19.20;90.60;;;15.80;89.97;101029.94;5052018;28;20039;-79
2022/07/05 00:15:52;;;;;;;4.90;2.30;;;19.20;90.50;;;15.82;89.98;101030.59;5043388;28;20052;-79
2022/07/05 00:18:19;;;;;;;6.80;2.90;;;19.20;90.50;;;15.80;90.22;101021.72;5044471;28;20099;-79
2022/07/05 00:20:46;;;;;;;4.47;2.28;;;19.20;90.60;;;15.80;90.15;101036.31;5047266;28;20037;-79
2022/07/05 00:23:13;;;;;;;4.25;2.22;;;19.10;90.60;;;15.78;90.48;101024.69;5049736;28;20481;-79
2022/07/05 00:25:41;;;;;;;5.35;2.70;;;19.10;90.80;;;15.77;89.76;101025.72;5051193;28;20543;-79
2022/07/05 00:28:08;;;;;;;5.70;2.53;;;19.10;90.50;;;15.72;90.68;101038.34;5051060;28;20045;-79
2022/07/05 00:30:35;;;;;;;5.43;2.60;;;19.10;90.90;;;15.67;91.28;101027.13;5051572;28;20069;-79
2022/07/05 00:33:04;;;;;;;4.40;2.03;;;19.00;90.90;;;15.63;91.23;101035.78;5051629;28;20393;-79
2022/07/05 00:35:31;;;;;;;4.38;2.25;;;19.00;91.10;;;15.58;91.43;101019.09;5051753;28;20037;-79
2022/07/05 00:37:58;;;;;;;6.88;2.35;;;19.00;91.10;;;15.59;91.44;101025.41;5051721;28;20071;-79
2022/07/05 00:40:26;;;;;;;6.40;2.30;;;18.90;91.20;;;15.55;91.94;101016.75;5052043;28;20132;-79
2022/07/05 00:42:53;;;;;;;4.07;2.30;;;18.90;91.40;;;15.52;91.92;101025.41;5050360;28;20037;-79
2022/07/05 00:45:20;;;;;;;5.80;2.40;;;18.90;91.50;;;15.44;92.25;101026.44;5062400;28;20048;-79
2022/07/05 00:47:48;;;;;;;4.78;2.20;;;18.90;91.50;;;15.39;92.57;101028.94;5044540;28;20057;-79
2022/07/05 00:50:16;;;;;;;4.68;2.40;;;18.80;91.40;;;15.36;93.41;101034.81;5049277;28;20041;-79
2022/07/05 00:52:44;;;;;;;9.13;2.38;;;18.80;91.80;;;15.36;93.47;101036.72;5052074;28;20120;-79
2022/07/05 00:55:11;;;;;;;5.53;2.55;;;18.80;91.90;;;15.32;93.62;101035.44;5046579;28;20405;-79
2022/07/05 00:57:38;;;;;;;5.90;3.10;;;18.80;92.00;;;15.27;93.95;101029.69;5037797;28;20041;-79
2022/07/05 01:00:09;;;;;;;5.28;2.90;;;18.80;92.10;;;15.24;94.21;101042.75;5048998;28;20051;-79
2022/07/05 01:02:36;;;;;;;5.93;2.90;;;18.80;92.20;;;15.27;93.85;101035.19;5051508;28;20044;-79
2022/07/05 01:05:06;;;;;;;6.40;2.97;;;18.70;92.20;;;15.30;94.21;101037.53;5050160;28;20179;-79
2022/07/05 01:07:36;;;;;;;5.00;2.90;;;18.70;92.60;;;15.39;93.34;101034.41;5030414;28;20464;-79
2022/07/05 01:10:05;;;;;;;8.02;2.85;;;18.70;92.40;;;15.50;92.50;101033.00;5038482;28;20129;-79
2022/07/05 01:12:32;;;;;;;8.82;2.90;;;18.70;92.40;;;15.57;92.54;101039.34;5050046;28;20059;-79
2022/07/05 01:15:00;;;;;;;6.45;2.25;;;18.70;92.30;;;15.56;93.15;101031.31;5049555;28;20115;-79
2022/07/05 01:17:28;;;;;;;5.70;2.25;;;18.70;92.60;;;15.63;93.01;101040.41;5052308;28;20519;-79
2022/07/05 01:19:55;;;;;;;5.15;2.30;;;18.70;92.80;;;15.64;93.86;101040.22;5049749;28;20493;-79
2022/07/05 01:22:27;;;;;;;5.85;2.47;;;18.70;93.30;;;15.64;94.03;101042.13;5048164;28;20048;-79
2022/07/05 01:24:56;;;;;;;5.95;2.60;;;18.70;93.50;;;15.63;93.59;101034.91;5047651;28;20519;-79
2022/07/05 01:27:23;;;;;;;10.50;2.67;;;18.80;93.40;;;15.66;92.98;101039.16;5050854;28;20123;-79
2022/07/05 01:29:50;;;;;;;7.20;2.40;;;18.70;92.90;;;15.72;92.71;101032.84;5045671;28;20052;-79
2022/07/05 01:32:18;;;;;;;9.77;2.67;;;18.70;92.80;;;15.72;92.31;101027.38;5043598;28;20049;-79
2022/07/05 01:34:46;;;;;;;5.22;2.55;;;18.70;92.80;;;15.79;91.74;101029.09;5051538;28;20122;-79
2022/07/05 01:37:13;;;;;;;6.70;2.40;;;18.70;92.70;;;15.79;93.12;101033.75;5047010;28;20040;-79
2022/07/05 01:39:40;;;;;;;4.72;2.45;;;18.70;93.10;;;15.74;92.94;101034.34;5047269;28;20156;-79
2022/07/05 01:42:09;;;;;;;7.35;2.60;;;18.70;93.30;;;15.73;93.24;101037.31;5048286;28;20110;-79
2022/07/05 01:44:36;;;;;;;6.35;2.25;;;18.80;93.20;;;15.70;93.37;101046.78;5049067;28;20521;-79
2022/07/05 01:47:07;;;;;;;4.32;2.35;;;18.80;93.20;;;15.73;95.19;101040.03;5047112;28;20512;-79
2022/07/05 01:49:41;;;;;;;5.45;2.50;;;18.70;94.00;;;15.81;95.02;101042.63;5044213;28;20047;-79
2022/07/05 01:52:11;;;;;;;4.95;2.60;;;18.70;94.10;;;15.84;94.96;101047.72;5049928;28;20047;-79
2022/07/05 01:54:40;;;;;;;7.70;2.63;;;18.80;94.50;;;15.90;94.01;101040.56;5039129;28;20037;-79
2022/07/05 01:57:10;;;;;;;5.75;2.40;;;18.80;94.00;;;15.88;94.64;101038.00;5048051;28;20081;-79
2022/07/05 01:59:39;;;;;;;6.28;3.08;;;18.80;94.10;;;15.83;94.62;101032.28;5054556;28;20036;-79
2022/07/05 02:02:09;;;;;;;5.32;2.33;;;18.80;94.40;;;15.74;93.70;101031.63;5050737;28;20041;-79
2022/07/05 02:04:37;;;;;;;4.80;2.40;;;18.80;94.00;;;15.64;94.40;101028.41;5048564;28;20076;-79
2022/07/05 02:07:09;;;;;;;5.45;2.80;;;18.70;93.90;;;15.53;94.98;101027.06;5041197;28;20042;-79
2022/07/05 02:09:38;;;;;;;5.03;2.40;;;18.70;93.90;;;15.41;95.22;101039.69;5034122;28;20139;-79
2022/07/05 02:12:07;;;;;;;6.70;2.53;;;18.70;94.10;;;15.35;95.86;101024.91;5048418;28;20069;-79
2022/07/05 02:14:36;;;;;;;5.28;2.70;;;18.70;94.10;;;15.27;96.34;101019.59;5049170;28;20494;-79
2022/07/05 02:17:08;;;;;;;6.15;2.40;;;18.60;94.10;;;15.18;97.24;101018.91;5048778;28;20334;-79
2022/07/05 02:19:38;;;;;;;5.22;2.65;;;18.60;94.30;;;15.10;97.17;101030.06;5047470;28;20045;-79
2022/07/05 02:22:07;;;;;;;5.30;2.63;;;18.50;94.30;;;15.10;97.38;101024.56;5046416;28;20064;-79
2022/07/05 02:24:35;;;;;;;6.68;2.60;;;18.50;94.50;;;15.05;97.09;101025.16;5046392;28;20045;-79
2022/07/05 02:27:20;;;;;;;6.47;2.58;;;18.50;94.40;;;15.08;97.64;101026.66;5048239;28;20416;-79
2022/07/05 02:29:50;;;;;;;5.38;2.80;;;18.40;94.50;;;15.14;97.94;101027.75;5037899;28;20430;-79
2022/07/05 02:32:20;;;;;;;4.95;2.30;;;18.40;94.80;;;15.12;97.56;101033.44;5040281;28;20588;-79
2022/07/05 02:34:48;;;;;;;5.18;2.42;;;18.40;94.70;;;15.07;97.70;101030.44;5045091;28;20545;-79
2022/07/05 02:37:16;;;;;;;5.43;2.20;;;18.40;94.70;;;15.00;97.95;101022.19;5047546;28;20056;-79
2022/07/05 02:39:43;;;;;;;4.40;2.35;;;18.40;94.80;;;15.00;98.24;101029.53;5048100;28;20053;-79
2022/07/05 02:42:11;;;;;;;8.10;2.30;;;18.40;95.00;;;14.98;98.41;101028.91;5033681;28;20517;-79
2022/07/05 02:44:39;;;;;;;4.55;2.35;;;18.30;95.10;;;14.94;99.14;101031.19;5047654;28;20623;-79
2022/07/05 02:47:09;;;;;;;4.90;2.15;;;18.30;95.40;;;14.93;99.61;101025.94;5047855;28;20069;-79
2022/07/05 02:49:36;;;;;;;5.35;2.42;;;18.30;95.60;;;14.95;99.44;101021.09;5048373;28;20572;-79
2022/07/05 02:52:06;;;;;;;7.85;2.40;;;18.20;95.60;;;14.95;99.18;101023.84;5033217;28;20042;-79
2022/07/05 02:54:33;;;;;;;6.55;2.10;;;18.20;95.50;;;14.94;99.23;101024.88;5037682;28;20049;-79
2022/07/05 02:57:02;;;;;;;5.45;2.70;;;18.20;95.60;;;14.92;99.78;101026.97;5048196;28;20052;-79
2022/07/05 02:59:30;;;;;;;5.60;2.33;;;18.20;95.70;;;14.89;99.79;101027.34;5046733;28;20409;-79
2022/07/05 03:01:58;;;;;;;6.20;2.50;;;18.20;95.70;;;14.88;99.94;101039.38;5048087;28;20122;-79
2022/07/05 03:04:27;;;;;;;5.10;2.58;;;18.20;95.90;;;14.92;100.00;101043.41;5045813;28;20052;-79
2022/07/05 03:06:57;;;;;;;4.78;2.13;;;18.20;96.30;;;14.96;99.91;101040.06;5050607;28;20048;-79
2022/07/05 03:09:28;;;;;;;6.82;2.50;;;18.20;96.20;;;15.00;100.00;101046.00;5046917;28;20095;-79
2022/07/05 03:11:56;;;;;;;6.18;2.63;;;18.20;96.40;;;14.99;100.00;101038.84;5044072;28;20052;-79
2022/07/05 03:14:25;;;;;;;4.72;2.50;;;18.20;96.40;;;15.01;100.00;101036.72;5063797;28;20513;-79
2022/07/05 03:16:53;;;;;;;7.35;2.33;;;18.20;96.70;;;15.04;100.00;101041.78;5064313;28;20041;-79
2022/07/05 03:19:22;;;;;;;5.35;2.50;;;18.10;96.70;;;15.08;100.00;101043.09;5046935;28;20682;-79
2022/07/05 03:21:51;;;;;;;5.15;2.50;;;18.20;97.00;;;15.08;100.00;101032.16;5046659;28;20037;-79
2022/07/05 03:24:18;;;;;;;5.45;2.20;;;18.20;97.00;;;15.05;100.00;101043.50;5047157;28;20064;-79
2022/07/05 03:26:45;;;;;;;5.70;2.60;;;18.20;96.90;;;15.03;100.00;101040.13;5048171;28;20581;-80
2022/07/05 03:29:13;;;;;;;5.25;2.25;;;18.20;97.10;;;14.98;100.00;101043.47;5046552;28;20041;-79
2022/07/05 03:31:42;;;;;;;4.10;2.20;;;18.20;97.10;;;14.94;100.00;101041.31;5063040;28;20045;-79
2022/07/05 03:34:09;;;;;;;5.00;2.40;;;18.20;97.20;;;14.89;100.00;101044.66;5064023;28;20079;-79
2022/07/05 03:36:37;;;;;;;4.32;2.30;;;18.10;97.20;;;14.84;100.00;101045.25;5047813;28;20056;-79
2022/07/05 03:39:10;;;;;;;5.95;2.50;;;18.10;97.20;;;14.82;100.00;101041.88;5047039;28;20049;-79
2022/07/05 03:41:37;;;;;;;6.40;2.60;;;18.00;96.90;;;14.75;100.00;101042.88;5046837;28;20069;-79
2022/07/05 03:44:06;;;;;;;5.45;2.90;;;18.00;96.70;;;14.70;100.00;101045.34;5060559;28;20042;-79
2022/07/05 03:46:35;;;;;;;3.75;2.20;;;18.00;96.90;;;14.68;100.00;101042.84;5047666;28;20131;-79
2022/07/05 03:49:02;;;;;;;5.35;2.10;;;18.00;97.10;;;14.73;100.00;101048.53;5061571;28;20049;-79
2022/07/05 03:51:30;;;;;;;5.07;2.17;;;18.00;97.30;;;14.76;100.00;101039.94;5062103;22;20045;-81
2022/07/05 03:53:58;;;;;;;5.60;2.40;;;18.00;97.20;;;14.74;100.00;101044.78;5043479;28;20046;-81
2022/07/05 03:56:27;;;;;;;5.43;2.38;;;18.00;97.40;;;14.74;100.00;101050.25;5047874;28;20099;-81
2022/07/05 03:59:00;;;;;;;5.97;2.70;;;17.90;97.40;;;14.73;100.00;101048.53;5047098;28;20091;-81
2022/07/05 04:01:27;;;;;;;7.25;2.38;;;17.90;97.50;;;14.72;100.00;101049.59;5045426;28;20041;-81
2022/07/05 04:03:56;;;;;;;5.55;2.45;;;17.90;97.60;;;14.71;100.00;101047.91;5060485;28;20065;-81
2022/07/05 04:06:24;;;;;;;6.28;2.47;;;17.90;97.70;;;14.76;100.00;101050.91;5047577;28;20056;-81
2022/07/05 04:08:53;;;;;;;6.82;2.60;;;17.90;97.70;;;14.79;100.00;101049.63;5046668;28;20048;-81
2022/07/05 04:11:21;;;;;;;6.32;2.67;;;17.90;98.00;;;14.84;100.00;101053.47;5063154;28;20069;-81
2022/07/05 04:13:53;;;;;;;4.85;2.50;;;17.90;98.10;;;14.86;100.00;101045.91;5063612;28;20052;-82
2022/07/05 04:16:21;;;;;;;5.47;2.30;;;17.90;98.20;;;14.89;100.00;101044.66;5064236;28;20045;-85
2022/07/05 04:18:49;;;;;;;5.63;2.50;;;17.90;98.20;;;14.93;100.00;101047.88;5047433;28;20562;-85
2022/07/05 04:21:16;;;;;;;5.25;2.28;;;17.90;98.30;;;14.92;100.00;101054.38;5044516;28;20037;-89
2022/07/05 04:23:44;;;;;;;4.68;2.47;;;18.00;98.40;;;14.94;100.00;101052.28;5064241;28;20072;-88
2022/07/05 04:26:12;;;;;;;7.25;2.30;;;18.00;98.40;;;14.95;100.00;101049.34;5050514;28;20052;-89
2022/07/05 04:28:44;;;;;;;4.78;2.30;;;18.00;98.80;;;14.96;100.00;101048.28;5052692;28;20457;-88
2022/07/05 04:31:16;;;;;;;5.57;2.33;;;18.00;99.00;;;14.95;100.00;101060.31;5056399;28;20049;-88
2022/07/05 04:33:47;;;;;;;6.57;2.83;;;17.90;99.00;;;14.96;100.00;101061.16;5050444;28;20083;-89
2022/07/05 04:36:19;;;;;;;3.92;2.15;;;18.00;98.90;;;15.02;100.00;101065.81;5056119;28;20057;-88
2022/07/05 04:38:48;;;;;;;6.03;2.20;;;18.00;98.90;;;15.17;100.00;101066.59;5054457;28;20056;-89
2022/07/05 04:41:16;;;;;;;5.55;2.50;;;18.00;98.90;;;15.36;100.00;101069.63;5048214;28;20053;-89
2022/07/05 04:43:44;;;;;;;6.63;2.65;;;18.10;99.00;;;15.52;100.00;101069.28;5048319;28;20107;-88
2022/07/05 04:46:15;;;;;;;4.95;2.70;;;18.20;98.90;;;15.68;100.00;101064.50;5048113;28;20050;-88
2022/07/05 04:48:44;;;;;;;6.38;2.85;;;18.20;98.60;;;15.91;100.00;101069.69;5054926;28;20402;-88
2022/07/05 04:51:12;;;;;;;7.10;2.70;;;18.30;98.90;;;16.12;98.67;101074.19;5063742;28;20120;-91
2022/07/05 04:53:41;;;;;;;5.68;2.42;;;18.40;98.60;;;16.50;97.95;101068.09;5050604;28;20086;-88
2022/07/05 04:56:08;;;;;;;5.53;2.70;;;18.50;98.60;;;16.69;95.91;101083.75;5046465;28;20568;-89
2022/07/05 04:58:35;;;;;;;5.95;2.55;;;18.60;98.30;;;16.74;95.96;101080.38;5049626;28;20045;-89
2022/07/05 05:01:03;;;;;;;5.97;2.42;;;18.70;98.60;;;16.60;97.05;101079.50;5051023;28;20475;-89
2022/07/05 05:03:31;;;;;;;7.72;2.22;;;18.70;98.40;;;16.53;97.50;101079.53;5051933;28;20048;-89
2022/07/05 05:05:59;;;;;;;9.07;3.10;;;18.80;98.70;;;16.48;98.04;101082.06;5050150;28;20139;-90
2022/07/05 05:08:27;;;;;;;5.95;2.80;;;18.80;98.70;;;16.55;97.87;101080.16;5064564;28;20457;-84
2022/07/05 05:10:54;;;;;;;6.50;2.83;;;18.80;98.60;;;16.77;98.04;101082.69;5043686;28;20414;-84
2022/07/05 05:13:21;;;;;;;8.77;3.70;;;18.90;99.10;;;16.83;96.08;101078.28;5051185;28;20041;-84
2022/07/05 05:15:48;;;;;;;11.32;3.28;;;19.00;98.20;;;16.79;96.60;101089.69;5044385;28;20056;-83
2022/07/05 05:18:18;;;;;;;5.75;3.00;;;19.00;98.10;;;16.96;95.99;101090.16;5051264;28;20464;-85
2022/07/05 05:20:46;;;;;;;8.50;3.60;;;19.00;98.10;;;17.12;96.36;101094.34;5050655;28;20584;-83
2022/07/05 05:23:13;;;;;;;11.65;3.92;;;19.10;98.60;;;17.29;92.74;101082.91;5044549;28;20537;-83
2022/07/05 05:25:41;;;;;;;11.70;4.30;;;19.10;97.70;;;17.43;90.76;101084.53;5047150;28;20150;-83
2022/07/05 05:28:08;;;;;;;11.30;4.63;;;19.10;96.50;;;17.48;91.32;101093.00;5049322;28;20049;-84
2022/07/05 05:30:35;;;;;;;7.80;3.95;;;19.20;96.50;;;17.54;90.65;101088.53;5045654;28;20041;-83
2022/07/05 05:33:02;;;;;;;14.38;4.47;;;19.20;96.60;;;17.63;88.53;101094.63;5050450;28;20128;-84
2022/07/05 05:35:30;;;;;;;10.63;4.90;;;19.30;96.00;;;17.77;86.24;101096.28;5050727;28;20527;-83
2022/07/05 05:37:59;;;;;;;10.93;4.53;;;19.30;94.90;;;17.85;84.56;101097.97;5035187;28;20421;-84
2022/07/05 05:40:26;;;;;;;9.00;4.82;;;19.40;94.10;;;17.92;82.58;101099.63;5034484;28;20143;-84
2022/07/05 05:42:55;;;;;;;9.27;4.28;;;19.40;93.10;;;17.95;82.48;101099.22;5047309;28;20047;-84
2022/07/05 05:45:23;;;;;;;10.38;4.78;;;19.50;92.50;;;17.96;82.13;101095.38;5067933;28;20044;-82
2022/07/05 05:47:53;;;;;;;12.18;4.40;;;19.60;92.90;;;18.09;82.15;101099.97;5037199;28;20117;-89
2022/07/05 05:50:21;;;;;;;11.70;4.72;;;19.60;92.60;;;18.18;80.76;101103.31;5054822;28;20052;-86
2022/07/05 05:52:49;;;;;;;9.48;4.53;;;19.60;92.30;;;18.22;82.31;101098.19;5050210;28;20051;-88
2022/07/05 05:55:19;;;;;;;10.73;5.07;;;19.70;92.20;;;18.44;79.67;101091.28;5065886;28;20040;-85
2022/07/05 05:57:47;;;;;;;9.20;5.13;;;19.70;91.50;;;19.12;76.13;101098.81;5045481;28;20442;-86
2022/07/05 06:00:15;;;;;;;8.07;4.40;;;20.00;90.20;;;19.87;74.15;101100.53;5051687;28;20187;-85
2022/07/05 06:02:43;;;;;;;10.98;4.25;;;20.40;89.20;;;20.66;70.24;101103.28;5047506;28;20456;-87
2022/07/05 06:05:11;;;;;;;6.97;3.50;;;20.90;87.50;;;21.35;67.18;101097.19;5047553;28;20098;-86
2022/07/05 06:07:49;;;;;;;9.20;3.72;;;21.40;85.50;;;22.03;62.40;101100.31;5049151;28;20398;-86
2022/07/05 06:10:20;;;;;;;9.23;3.50;;;22.00;83.40;;;22.71;59.32;101100.47;5041875;28;20045;-86
2022/07/05 06:12:47;;;;;;;7.32;3.35;;;22.40;80.50;;;23.46;58.06;101095.56;5049980;28;20127;-87
2022/07/05 06:15:15;;;;;;;5.85;2.70;;;22.80;80.30;;;24.04;55.47;101093.25;5064932;28;20048;-87
2022/07/05 06:17:42;;;;;;;9.15;3.40;;;23.10;78.90;;;24.67;50.99;101105.59;5052683;28;20040;-86
2022/07/05 06:20:12;;;;;;;9.95;2.83;;;23.40;75.40;;;25.70;50.51;101096.06;5048631;28;20099;-86
2022/07/05 06:22:40;;;;;;;8.13;2.10;;;23.60;76.10;;;26.55;44.82;101099.66;5060115;28;20580;-86
2022/07/05 06:25:09;;;;;;;3.92;1.83;;;23.90;73.20;;;27.69;43.07;101114.09;5047834;28;20077;-89
2022/07/05 06:27:41;;;;;;;6.70;2.10;;;24.10;72.50;;;28.74;40.25;101111.31;5032654;28;20134;-83
2022/07/05 06:30:10;;;;;;;6.20;2.30;;;24.20;71.60;;;30.04;37.79;101104.06;5044512;28;20055;-83
2022/07/05 06:32:37;;;;;;;5.28;2.35;;;24.30;72.70;;;31.29;35.03;101099.00;5055120;28;20040;-83
2022/07/05 06:35:06;;;;;;;4.93;2.47;;;24.30;72.10;;;30.93;34.14;101099.66;5059533;28;20670;-83
2022/07/05 06:37:45;;;;;;;7.50;2.90;;;24.30;71.00;;;27.80;38.73;101109.31;5049703;28;20043;-83
2022/07/05 06:40:14;;;;;;;9.65;2.92;;;24.20;71.00;;;25.70;44.80;101117.50;5048605;28;20045;-83
2022/07/05 06:42:43;;;;;;;7.65;3.00;;;24.20;72.60;;;24.21;48.95;101121.81;5049032;28;20041;-83
2022/07/05 06:45:11;;;;;;;5.43;2.63;;;24.10;73.10;;;23.65;50.45;101119.16;5045718;28;20457;-83
2022/07/05 06:47:39;;;;;;;7.05;3.20;;;23.90;73.60;;;22.97;53.90;101123.94;5047419;28;20064;-83
2022/07/05 06:50:08;;;;;;;5.78;2.70;;;23.80;73.50;;;22.51;55.32;101125.94;5062484;28;20052;-83
2022/07/05 06:52:36;;;;;;;7.68;2.90;;;23.70;73.90;;;22.21;54.77;101127.81;5048663;28;20068;-83
2022/07/05 06:55:04;;;;;;;7.43;3.05;;;23.60;73.80;;;22.12;54.69;101129.31;5049254;28;20033;-85
2022/07/05 06:57:31;;;;;;;7.03;3.10;;;23.50;72.80;;;21.94;54.84;101126.75;5048168;28;20033;-82
2022/07/05 07:00:01;;;;;;;7.43;3.20;;;23.40;72.40;;;21.80;56.31;101129.78;5048657;28;20490;-82
2022/07/05 07:02:29;;;;;;;8.50;3.00;;;23.30;73.80;;;21.93;56.15;101127.81;5047415;28;20029;-83
2022/07/05 07:04:56;;;;;;;6.85;2.33;;;23.20;74.60;;;21.96;59.12;101127.31;5062999;28;20463;-83
2022/07/05 07:10:09;;;;;;;3.88;1.65;;;23.00;74.70;;;22.01;59.33;101136.59;5048281;28;20072;-82
2022/07/05 07:12:36;;;;;;;5.03;2.08;;;23.00;76.70;;;21.94;56.97;101132.28;5048938;28;20036;-83
2022/07/05 07:15:06;;;;;;;5.82;2.55;;;23.00;75.70;;;21.91;59.34;101136.34;5048693;28;20126;-82
2022/07/05 07:17:33;;;;;;;7.80;2.70;;;23.00;77.20;;;22.00;57.87;101143.22;5045756;28;20527;-82
2022/07/05 07:20:01;;;;;;;7.30;2.88;;;22.90;76.40;;;21.97;57.79;101135.41;5048773;28;20374;-82
2022/07/05 07:22:28;;;;;;;8.75;3.13;;;22.90;75.90;;;21.95;55.86;101136.72;5048685;28;20130;-82
2022/07/05 07:24:55;;;;;;;8.70;3.00;;;22.90;76.60;;;21.70;54.56;101129.53;5048128;28;20045;-82
2022/07/05 07:27:22;;;;;;;6.63;2.65;;;22.80;73.20;;;21.58;55.55;101137.03;5047247;28;20095;-83
2022/07/05 07:29:50;;;;;;;6.75;2.53;;;22.80;73.50;;;21.76;57.80;101136.91;5043726;28;20045;-84
2022/07/05 07:32:19;;;;;;;8.57;2.45;;;22.80;76.00;;;21.73;56.82;101128.22;5038884;28;20040;-84
2022/07/05 07:34:46;;;;;;;3.85;1.70;;;22.70;74.30;;;21.73;56.66;101133.78;5049054;28;20033;-83
2022/07/05 07:37:14;;;;;;;8.15;2.10;;;22.80;75.60;;;21.80;56.81;101132.56;5046273;28;20122;-83
2022/07/05 07:39:41;;;;;;;6.88;2.22;;;22.80;75.90;;;21.82;58.93;101133.16;5043810;28;20050;-83
2022/07/05 07:42:09;;;;;;;5.63;2.20;;;22.80;76.70;;;21.86;56.08;101139.06;5044551;28;20533;-83
2022/07/05 07:44:36;;;;;;;9.25;2.58;;;22.80;76.60;;;21.93;55.66;101145.28;5048246;28;20061;-82
2022/07/05 07:47:04;;;;;;;5.78;1.50;;;22.80;75.40;;;22.05;55.39;101148.88;5046655;28;20051;-83
2022/07/05 07:49:33;;;;;;;6.20;1.60;;;22.80;74.40;;;21.92;56.17;101151.09;5047781;28;20646;-83
2022/07/05 07:52:00;;;;;;;4.60;1.90;;;22.80;75.00;;;21.89;55.77;101148.78;5050257;28;20037;-83
2022/07/05 07:54:27;;;;;;;6.00;1.92;;;22.80;75.70;;;21.99;58.42;101155.41;5049086;28;20785;-84
2022/07/05 07:56:54;;;;;;;6.85;1.92;;;22.80;77.30;;;22.02;57.17;101142.97;5051395;28;20036;-84
2022/07/05 07:59:21;;;;;;;4.68;1.83;;;22.80;77.00;;;22.02;54.24;101149.34;5049824;28;20459;-84
2022/07/05 08:01:48;;;;;;;6.40;2.10;;;22.80;74.30;;;22.10;54.68;101150.06;5046854;28;20048;-85
2022/07/05 08:04:16;;;;;;;6.35;1.90;;;22.80;74.70;;;22.16;56.53;101155.47;5050846;28;20131;-84
2022/07/05 08:06:45;;;;;;;4.03;1.50;;;22.80;76.30;;;22.26;55.57;101152.09;5052135;28;20045;-85
2022/07/05 08:09:13;;;;;;;6.97;1.95;;;22.80;75.20;;;22.37;55.55;101153.09;5051012;28;20076;-84
2022/07/05 08:11:40;;;;;;;7.25;2.42;;;22.90;75.50;;;22.18;54.43;101144.13;5050625;28;20037;-84
2022/07/05 08:14:08;;;;;;;7.03;2.42;;;22.80;74.70;;;22.05;54.92;101148.88;5049915;28;20557;-86
2022/07/05 08:16:35;;;;;;;5.93;2.47;;;22.80;74.20;;;21.93;56.04;101150.81;5050571;28;20091;-86
2022/07/05 08:21:49;;;;;;;6.57;2.47;;;22.80;75.90;;;22.28;59.74;101149.91;5046906;28;20052;-86
2022/07/05 08:24:16;;;;;;;6.97;2.50;;;22.80;78.50;;;22.16;56.33;101149.06;5049003;28;20128;-86
2022/07/05 08:26:44;;;;;;;4.63;2.08;;;22.80;75.60;;;22.05;55.54;101156.34;5055877;28;20045;-86
2022/07/05 08:29:13;;;;;;;8.20;2.75;;;22.80;75.50;;;21.84;58.00;101150.38;5049761;28;20501;-87
2022/07/05 08:31:43;;;;;;;11.18;2.78;;;22.80;76.60;;;21.60;57.88;101151.50;5046990;28;20044;-86
2022/07/05 08:34:11;;;;;;;6.30;2.35;;;22.70;76.30;;;21.35;58.97;101160.03;5046382;28;20037;-87
2022/07/05 08:36:41;;;;;;;4.72;1.70;;;22.70;76.20;;;21.15;60.16;101160.38;5048597;28;20116;-86
2022/07/05 08:39:10;;;;;;;6.70;1.80;;;22.70;77.10;;;20.94;60.37;101159.84;5053594;28;20052;-87
2022/07/05 08:41:40;;;;;;;6.28;2.05;;;22.60;76.60;;;20.81;60.68;101160.06;5051862;28;20134;-86
2022/07/05 08:44:08;;;;;;;6.75;2.00;;;22.50;76.80;;;20.75;62.41;101163.78;5046634;28;20132;-86
2022/07/05 08:46:39;;;;;;;6.47;2.28;;;22.50;77.50;;;20.72;64.43;101161.50;5049180;28;20044;-86
2022/07/05 08:49:07;;;;;;;;;;;22.40;79.50;;;20.73;65.29;101160.41;5045950;28;20466;-86
2022/07/05 08:51:38;;;;;;;5.60;2.20;;;22.40;79.80;;;20.79;63.48;101162.22;5051332;28;19924;-85
2022/07/05 08:54:07;;;;;;;6.82;2.33;;;22.40;79.20;;;21.18;64.72;101155.19;5050209;28;20523;-86
2022/07/05 08:56:37;;;;;;;7.57;2.95;;;22.30;80.70;;;21.65;62.17;101154.38;5044995;28;20044;-85
2022/07/05 08:59:04;;;;;;;7.22;2.97;;;22.40;80.40;;;21.93;59.55;101149.97;5045835;28;20509;-85
2022/07/05 09:01:34;;;;;;;8.20;2.85;;;22.50;78.10;;;22.08;59.12;101147.53;5049754;28;20041;-85
2022/07/05 09:04:13;;;;;;;7.20;2.55;;;22.50;78.70;;;22.32;58.80;101151.09;5050640;28;20033;-88
2022/07/05 09:06:42;;;;;;;8.23;2.30;;;22.70;79.20;;;22.39;57.62;101151.78;5047935;28;20080;-87
2022/07/05 09:09:10;;;;;;;6.47;2.10;;;22.70;77.70;;;22.49;57.57;101148.38;5065969;28;20044;-86
2022/07/05 09:11:41;;;;;;;4.43;1.88;;;22.80;78.30;;;22.56;58.01;101137.09;5046366;28;20124;-86
2022/07/05 09:14:20;;;;;;;5.78;2.00;;;22.80;80.40;;;22.50;55.30;101143.66;5050104;28;20045;-86
2022/07/05 09:16:47;;;;;;;6.18;1.60;;;22.80;77.20;;;22.38;56.29;101146.50;5039787;28;20053;-86
2022/07/05 09:19:15;;;;;;;7.55;2.42;;;22.80;76.30;;;22.22;53.86;101148.94;5046368;28;20051;-86
2022/07/05 09:21:43;;;;;;;4.47;1.58;;;22.80;74.40;;;22.11;56.48;101163.69;5040828;28;20045;-87
2022/07/05 09:24:12;;;;;;;6.72;1.85;;;22.80;76.10;;;22.02;56.09;101154.06;5059917;28;20131;-87
2022/07/05 09:26:43;;;;;;;5.60;1.52;;;22.70;75.60;;;21.89;56.56;101166.25;5044696;28;20132;-86
2022/07/05 09:29:11;;;;;;;;;;;22.70;75.10;;;21.75;57.34;101165.69;5041260;28;20049;-86
2022/07/05 09:31:41;;;;;;;5.45;2.03;;;22.70;75.10;;;21.59;58.11;101163.63;5049577;28;19971;-86
2022/07/05 09:34:10;;;;;;;4.03;1.45;;;22.70;76.00;;;21.51;58.92;101170.41;5055469;28;20029;-87
2022/07/05 09:36:52;;;;;;;4.25;1.60;;;22.70;76.50;;;21.56;58.57;101162.22;5049444;28;20408;-86
2022/07/05 09:39:37;;;;;;;4.57;1.40;;;22.60;76.30;;;21.91;56.95;101157.69;5047143;28;20080;-86
2022/07/05 09:42:22;;;;;;;4.60;1.52;;;22.70;76.00;;;22.10;53.75;101156.44;5048965;28;20072;-87
2022/07/05 09:44:51;;;;;;;5.25;1.45;;;22.70;73.80;;;22.16;56.39;101160.16;5042277;28;20056;-86
2022/07/05 09:47:21;;;;;;;6.65;2.08;;;22.80;76.00;;;22.03;53.36;101152.97;5048610;28;20160;-86
2022/07/05 09:49:50;;;;;;;4.00;1.50;;;22.80;73.60;;;21.99;53.54;101157.31;5046200;28;20040;-86
2022/07/05 09:52:31;;;;;;;5.15;1.50;;;22.80;74.30;;;21.82;54.43;101160.03;5047441;28;20033;-87
2022/07/05 09:55:03;;;;;;;;;;;22.70;73.90;;;21.99;53.99;101152.63;5084040;22;20455;-89
2022/07/05 09:57:33;;;;;;;3.95;1.52;;;22.80;73.70;;;22.19;51.89;101146.66;5047518;28;19920;-89
2022/07/05 10:00:02;;;;;;;4.18;1.55;;;22.80;72.20;;;22.35;51.16;101146.97;5045203;28;20040;-89
2022/07/05 10:02:40;;;;;;;8.65;1.60;;;22.80;72.50;;;22.49;50.50;101147.53;5051536;28;20053;-89
2022/07/05 10:05:12;;;;;;;3.80;1.45;;;22.90;70.60;;;22.55;49.53;101152.09;5047765;28;20045;-90
2022/07/05 10:07:44;;;;;;;3.03;1.33;;;22.90;69.40;;;22.61;49.09;101148.31;5050547;28;20048;-87
2022/07/05 10:10:13;;;;;;;5.70;1.60;;;22.90;68.90;;;22.71;51.95;101156.81;5048445;28;20413;-90
2022/07/05 10:12:44;;;;;;;3.53;1.40;;;23.00;72.40;;;22.76;50.47;101153.28;5048835;28;20056;-90
2022/07/05 10:15:14;;;;;;;4.78;1.40;;;23.10;71.10;;;22.88;52.61;101150.44;5048721;28;20037;-89
2022/07/05 10:17:44;;;;;;;4.30;1.52;;;23.10;72.50;;;23.00;51.26;101143.72;5050031;28;20032;-89
2022/07/05 10:20:20;;;;;;;4.03;1.40;;;23.10;72.00;;;22.89;47.99;101155.75;5048586;28;20044;-91
2022/07/05 10:22:48;;;;;;;3.75;1.30;;;23.20;67.80;;;22.73;50.13;101149.09;5049167;28;20041;-90
2022/07/05 10:25:15;;;;;;;3.95;1.40;;;23.10;69.10;;;22.56;50.19;101154.63;5047530;28;20047;-87